Time;durP1;ratioP1;P1;durP2;ratioP2;P2;SDS_P1;SDS_P2;PMS_P1;PMS_P2;Temp;Humidity;BMP_temperature;BMP_pressure;BME280_temperature;BME280_humidity;BME280_pressure;Samples;Min_cycle;Max_cycle;Signal;HPM_P1;HPM_P2
2022/06/24 00:02:58;;;;;;;4.17;3.70;;;;;;;;;;10437673;28;20049;-69
2022/06/24 00:08:01;;;;;;;7.00;4.10;;;;;;;;;;10435681;28;20072;-68
2022/06/24 00:13:07;;;;;;;5.13;3.72;;;;;;;;;;10436615;28;20057;-69
2022/06/24 00:18:13;;;;;;;4.43;4.00;;;;;;;;;;10435869;28;20053;-70
2022/06/24 00:23:16;;;;;;;3.83;3.53;;;;;;;;;;10436382;28;20045;-69
2022/06/24 00:28:25;;;;;;;5.10;3.85;;;;;;;;;;10466331;28;20081;-68
2022/06/24 00:33:33;;;;;;;4.47;4.07;;;;;;;;;;10476538;28;20056;-69
2022/06/24 00:38:37;;;;;;;4.82;3.88;;;;;;;;;;10435671;28;20232;-69
2022/06/24 00:43:42;;;;;;;4.27;3.83;;;;;;;;;;10434667;28;20087;-68
2022/06/24 00:48:48;;;;;;;5.10;4.45;;;;;;;;;;10435897;28;20107;-68
2022/06/24 00:53:53;;;;;;;10.13;4.10;;;;;;;;;;10434376;28;20041;-68
2022/06/24 00:58:58;;;;;;;8.45;4.65;;;;;;;;;;10455002;28;20052;-68
2022/06/24 01:04:01;;;;;;;6.30;4.00;;;;;;;;;;10475805;28;20071;-68
2022/06/24 01:09:04;;;;;;;5.10;3.83;;;;;;;;;;10443679;28;20061;-68
2022/06/24 01:14:09;;;;;;;4.10;3.80;;;;;;;;;;10434320;28;20050;-68
2022/06/24 01:19:11;;;;;;;;;;;;;;;;;;10434212;28;20053;-68
2022/06/24 01:24:17;;;;;;;6.95;3.97;;;;;;;;;;10434226;28;19924;-69
2022/06/24 01:29:20;;;;;;;4.40;4.10;;;;;;;;;;10434025;28;20060;-69
2022/06/24 01:34:23;;;;;;;4.03;3.72;;;;;;;;;;10436866;28;20041;-68
2022/06/24 01:39:27;;;;;;;4.22;3.88;;;;;;;;;;10445627;28;20240;-68
2022/06/24 01:44:29;;;;;;;3.73;3.43;;;;;;;;;;10463639;28;20053;-68
2022/06/24 01:49:31;;;;;;;5.82;4.15;;;;;;;;;;10434106;28;20236;-69
2022/06/24 01:54:35;;;;;;;3.92;3.60;;;;;;;;;;10434498;28;20054;-68
2022/06/24 01:59:37;;;;;;;4.47;3.80;;;;;;;;;;10450910;28;20041;-68
2022/06/24 02:04:39;;;;;;;3.95;3.65;;;;;;;;;;10483056;28;20049;-68
2022/06/24 02:15:04;;;;;;;5.03;3.92;;;;;;;;;;10440558;28;20069;-68
2022/06/24 02:20:07;;;;;;;4.57;4.18;;;;;;;;;;10439736;28;20332;-68
2022/06/24 02:25:11;;;;;;;4.35;3.95;;;;;;;;;;10459099;28;20044;-67
2022/06/24 02:30:14;;;;;;;4.60;3.97;;;;;;;;;;10462836;28;20052;-68
2022/06/24 02:35:16;;;;;;;4.80;4.28;;;;;;;;;;10443736;28;20232;-68
2022/06/24 02:45:39;;;;;;;4.35;3.95;;;;;;;;;;10439556;28;20333;-68
2022/06/24 02:50:42;;;;;;;6.72;4.43;;;;;;;;;;10439520;28;20076;-68
2022/06/24 02:55:47;;;;;;;10.90;9.98;;;;;;;;;;10439100;28;20041;-69
2022/06/24 03:00:51;;;;;;;13.35;12.45;;;;;;;;;;10439084;28;20049;-68
2022/06/24 03:05:53;;;;;;;14.30;13.20;;;;;;;;;;10457672;28;20048;-69
2022/06/24 03:10:58;;;;;;;12.77;11.80;;;;;;;;;;10460787;28;20087;-69
2022/06/24 03:16:01;;;;;;;13.60;12.80;;;;;;;;;;10438634;28;20076;-69
2022/06/24 03:21:05;;;;;;;12.55;11.75;;;;;;;;;;10447830;28;20232;-67
2022/06/24 03:26:08;;;;;;;13.35;12.25;;;;;;;;;;10457220;28;20041;-67
2022/06/24 03:31:13;;;;;;;13.95;13.13;;;;;;;;;;10473780;28;20068;-68
2022/06/24 03:36:17;;;;;;;7.72;7.32;;;;;;;;;;10461877;28;20048;-68
2022/06/24 03:41:21;;;;;;;0.63;0.63;;;;;;;;;;10474024;28;20040;-67
2022/06/24 03:46:23;;;;;;;4.32;4.22;;;;;;;;;;10473227;28;20071;-69
2022/06/24 03:51:25;;;;;;;0.10;0.10;;;;;;;;;;10464349;28;20060;-69
2022/06/24 03:56:29;;;;;;;0.10;0.10;;;;;;;;;;10436149;28;20050;-68
2022/06/24 04:01:31;;;;;;;0.00;0.00;;;;;;;;;;10443240;28;20060;-68
2022/06/24 04:06:34;;;;;;;0.00;0.00;;;;;;;;;;10440157;28;20037;-69
2022/06/24 04:11:37;;;;;;;0.00;0.00;;;;;;;;;;10447310;28;20064;-68
2022/06/24 04:16:40;;;;;;;0.00;0.00;;;;;;;;;;10465283;28;20328;-71
2022/06/24 04:21:42;;;;;;;0.00;0.00;;;;;;;;;;10435323;28;20099;-71
2022/06/24 04:26:46;;;;;;;0.00;0.00;;;;;;;;;;10456588;28;20098;-71
2022/06/24 04:31:48;;;;;;;0.00;0.00;;;;;;;;;;10467002;28;20041;-71
2022/06/24 04:36:50;;;;;;;0.00;0.00;;;;;;;;;;10439687;28;20324;-71
2022/06/24 04:41:54;;;;;;;0.00;0.00;;;;;;;;;;10435150;28;20064;-69
2022/06/24 04:46:56;;;;;;;0.00;0.00;;;;;;;;;;10451626;28;20057;-69
2022/06/24 04:51:58;;;;;;;0.00;0.00;;;;;;;;;;10456539;28;20053;-70
2022/06/24 04:57:02;;;;;;;0.00;0.00;;;;;;;;;;10440737;28;20060;-69
2022/06/24 05:02:07;;;;;;;0.00;0.00;;;;;;;;;;10434340;28;20053;-70
2022/06/24 05:07:09;;;;;;;0.00;0.00;;;;;;;;;;10443661;28;20050;-70
2022/06/24 05:12:13;;;;;;;0.00;0.00;;;;;;;;;;10443331;28;20069;-70
2022/06/24 05:17:16;;;;;;;0.00;0.00;;;;;;;;;;10441986;28;20049;-70
2022/06/24 05:22:18;;;;;;;0.00;0.00;;;;;;;;;;10473608;28;20091;-69
2022/06/24 05:27:21;;;;;;;0.10;0.10;;;;;;;;;;10440383;28;20049;-69
2022/06/24 05:32:23;;;;;;;0.20;0.20;;;;;;;;;;10443460;28;20267;-72
2022/06/24 05:37:26;;;;;;;0.30;0.30;;;;;;;;;;10457999;28;20061;-69
2022/06/24 05:42:29;;;;;;;0.30;0.30;;;;;;;;;;10449922;28;20068;-69
2022/06/24 05:47:31;;;;;;;0.40;0.40;;;;;;;;;;10455956;28;20045;-69
2022/06/24 05:57:54;;;;;;;0.70;0.70;;;;;;;;;;10463612;28;20042;-69
2022/06/24 06:02:56;;;;;;;0.90;0.90;;;;;;;;;;10455688;28;20329;-70
2022/06/24 06:07:59;;;;;;;1.10;1.10;;;;;;;;;;10465292;28;20350;-70
2022/06/24 06:13:03;;;;;;;1.50;1.50;;;;;;;;;;10475751;28;20056;-69
2022/06/24 06:18:05;;;;;;;1.88;1.88;;;;;;;;;;10472450;28;20041;-69
2022/06/24 06:23:08;;;;;;;2.20;2.20;;;;;;;;;;10451981;28;20057;-69
2022/06/24 06:28:11;;;;;;;2.50;2.50;;;;;;;;;;10440730;28;20072;-70
2022/06/24 06:33:14;;;;;;;2.95;2.85;;;;;;;;;;10440025;28;20048;-70
2022/06/24 06:38:16;;;;;;;3.40;3.30;;;;;;;;;;10439874;28;20053;-70
2022/06/24 06:43:20;;;;;;;4.05;3.95;;;;;;;;;;10439017;28;20068;-69
2022/06/24 06:48:23;;;;;;;4.85;4.75;;;;;;;;;;10439670;28;20041;-70
2022/06/24 06:53:26;;;;;;;5.40;5.20;;;;;;;;;;10471082;28;20060;-68
2022/06/24 06:58:31;;;;;;;5.80;5.60;;;;;;;;;;10452681;28;20045;-69
2022/06/24 07:03:33;;;;;;;6.50;6.30;;;;;;;;;;10439440;28;20344;-69
2022/06/24 07:08:36;;;;;;;7.80;7.50;;;;;;;;;;10438021;28;20080;-69
2022/06/24 07:13:40;;;;;;;9.63;9.23;;;;;;;;;;10469167;28;20048;-69
2022/06/24 07:18:42;;;;;;;12.48;11.95;;;;;;;;;;10478966;28;20041;-69
2022/06/24 07:23:44;;;;;;;14.23;13.60;;;;;;;;;;10448624;28;20210;-69
2022/06/24 07:28:48;;;;;;;15.80;15.10;;;;;;;;;;10466668;28;20355;-69
2022/06/24 07:33:50;;;;;;;18.02;17.13;;;;;;;;;;10464392;28;20078;-69
2022/06/24 07:38:52;;;;;;;19.83;18.83;;;;;;;;;;10437392;28;20049;-69
2022/06/24 07:43:55;;;;;;;22.60;21.50;;;;;;;;;;10436747;28;20061;-70
2022/06/24 07:48:57;;;;;;;27.42;25.98;;;;;;;;;;10437117;28;20049;-70
2022/06/24 07:54:00;;;;;;;30.63;29.02;;;;;;;;;;10435318;28;20060;-69
2022/06/24 07:59:04;;;;;;;33.08;31.27;;;;;;;;;;10449566;28;20343;-69
2022/06/24 08:04:08;;;;;;;35.95;33.95;;;;;;;;;;10469152;28;20060;-69
2022/06/24 08:09:10;;;;;;;39.05;36.85;;;;;;;;;;10444268;28;20092;-69
2022/06/24 08:14:15;;;;;;;42.13;39.72;;;;;;;;;;10468172;28;20041;-70
2022/06/24 08:19:18;;;;;;;44.85;42.25;;;;;;;;;;10445528;28;20049;-69
2022/06/24 08:24:20;;;;;;;49.00;46.10;;;;;;;;;;10467347;28;20045;-70
2022/06/24 08:29:23;;;;;;;49.97;46.97;;;;;;;;;;10465031;28;20057;-69
2022/06/24 08:34:25;;;;;;;51.30;48.20;;;;;;;;;;10471388;28;20232;-69
2022/06/24 08:39:27;;;;;;;54.17;50.88;;;;;;;;;;10440845;28;20045;-69
2022/06/24 08:44:31;;;;;;;56.55;53.08;;;;;;;;;;10470288;28;20048;-69
2022/06/24 08:49:34;;;;;;;62.08;58.17;;;;;;;;;;10440182;28;20048;-70
2022/06/24 08:54:39;;;;;;;68.70;64.30;;;;;;;;;;10434320;28;20355;-69
2022/06/24 08:59:45;;;;;;;73.28;68.50;;;;;;;;;;10451092;28;20064;-70
2022/06/24 09:04:47;;;;;;;75.18;70.28;;;;;;;;;;10434852;28;20272;-69
2022/06/24 09:09:58;;;;;;;77.90;72.78;;;;;;;;;;10433738;28;20061;-68
2022/06/24 09:15:05;;;;;;;73.07;68.38;;;;;;;;;;10439665;28;20048;-69
2022/06/24 09:20:10;;;;;;;54.50;51.20;;;;;;;;;;10433413;28;20045;-69
2022/06/24 09:25:12;;;;;;;33.05;31.25;;;;;;;;;;10439449;28;20044;-68
2022/06/24 09:30:19;;;;;;;20.45;19.45;;;;;;;;;;10474532;28;20386;-68
2022/06/24 09:35:22;;;;;;;12.32;11.82;;;;;;;;;;10456070;28;20053;-69
2022/06/24 09:40:26;;;;;;;8.07;7.78;;;;;;;;;;10460121;28;20045;-68
2022/06/24 09:45:46;;;;;;;5.38;5.18;;;;;;;;;;10451220;28;20049;-68
2022/06/24 09:50:48;;;;;;;0.95;0.95;;;;;;;;;;10458273;28;20044;-68
2022/06/24 09:55:53;;;;;;;0.00;0.00;;;;;;;;;;10450086;28;20065;-68
2022/06/24 10:00:57;;;;;;;0.00;0.00;;;;;;;;;;10433787;28;20045;-68
2022/06/24 10:06:02;;;;;;;0.00;0.00;;;;;;;;;;10455886;28;20056;-69
2022/06/24 10:11:11;;;;;;;0.00;0.00;;;;;;;;;;10450638;28;20060;-69
2022/06/24 10:16:15;;;;;;;0.00;0.00;;;;;;;;;;10435551;28;20056;-68
2022/06/24 10:21:19;;;;;;;0.00;0.00;;;;;;;;;;10465128;28;20044;-68
2022/06/24 10:26:28;;;;;;;0.00;0.00;;;;;;;;;;10456121;28;20061;-68
2022/06/24 10:31:53;;;;;;;0.00;0.00;;;;;;;;;;10439898;28;20056;-68
2022/06/24 10:37:00;;;;;;;0.00;0.00;;;;;;;;;;10442406;28;20086;-68
2022/06/24 10:42:04;;;;;;;0.00;0.00;;;;;;;;;;10467287;28;20302;-68
2022/06/24 10:47:36;;;;;;;0.00;0.00;;;;;;;;;;10454376;28;20045;-68
2022/06/24 10:52:45;;;;;;;0.00;0.00;;;;;;;;;;10470589;28;20056;-68
2022/06/24 10:57:49;;;;;;;0.00;0.00;;;;;;;;;;10465740;28;20370;-68
2022/06/24 11:02:57;;;;;;;0.10;0.10;;;;;;;;;;10443351;28;20329;-68
2022/06/24 11:08:00;;;;;;;0.00;0.00;;;;;;;;;;10446419;28;20062;-70
2022/06/24 11:13:04;;;;;;;0.00;0.00;;;;;;;;;;10443499;28;20049;-72
2022/06/24 11:18:09;;;;;;;0.00;0.00;;;;;;;;;;10439083;28;20045;-68
2022/06/24 11:23:13;;;;;;;0.00;0.00;;;;;;;;;;10439462;28;20239;-71
2022/06/24 11:28:22;;;;;;;0.00;0.00;;;;;;;;;;10439493;28;20049;-69
2022/06/24 11:33:26;;;;;;;0.00;0.00;;;;;;;;;;10446170;28;20055;-71
2022/06/24 11:38:28;;;;;;;0.00;0.00;;;;;;;;;;10464538;28;20214;-71
2022/06/24 11:43:30;;;;;;;0.00;0.00;;;;;;;;;;10444367;28;20049;-72
2022/06/24 11:48:34;;;;;;;0.00;0.00;;;;;;;;;;10437891;28;20041;-73
2022/06/24 11:53:36;;;;;;;0.00;0.00;;;;;;;;;;10445203;28;20340;-73
2022/06/24 11:58:39;;;;;;;0.00;0.00;;;;;;;;;;10478231;28;20048;-72
2022/06/24 12:03:43;;;;;;;0.00;0.00;;;;;;;;;;10440326;28;20048;-71
2022/06/24 12:08:46;;;;;;;0.00;0.00;;;;;;;;;;10441040;28;20352;-73
2022/06/24 12:13:57;;;;;;;0.00;0.00;;;;;;;;;;10467395;28;20052;-72
2022/06/24 12:19:09;;;;;;;0.00;0.00;;;;;;;;;;10466212;28;20244;-72
2022/06/24 12:24:20;;;;;;;0.00;0.00;;;;;;;;;;10477654;28;20051;-71
2022/06/24 12:29:26;;;;;;;0.00;0.00;;;;;;;;;;10446932;28;20048;-73
2022/06/24 12:34:31;;;;;;;0.00;0.00;;;;;;;;;;10455974;28;20108;-71
2022/06/24 12:39:35;;;;;;;0.00;0.00;;;;;;;;;;10436872;28;20048;-72
2022/06/24 12:44:42;;;;;;;0.00;0.00;;;;;;;;;;10439173;28;20049;-72
2022/06/24 12:55:08;;;;;;;0.00;0.00;;;;;;;;;;10446975;28;20056;-72
2022/06/24 13:00:13;;;;;;;0.00;0.00;;;;;;;;;;10453575;28;20048;-72
2022/06/24 13:05:19;;;;;;;0.00;0.00;;;;;;;;;;10479862;28;20068;-73
2022/06/24 13:10:22;;;;;;;0.00;0.00;;;;;;;;;;10466905;28;20251;-73
2022/06/24 13:15:25;;;;;;;0.00;0.00;;;;;;;;;;10477395;28;20041;-71
2022/06/24 13:20:29;;;;;;;0.00;0.00;;;;;;;;;;10474662;28;20056;-73
2022/06/24 13:25:31;;;;;;;0.00;0.00;;;;;;;;;;10448665;28;20050;-71
2022/06/24 13:30:34;;;;;;;0.00;0.00;;;;;;;;;;10448026;28;20042;-73
2022/06/24 13:35:37;;;;;;;0.00;0.00;;;;;;;;;;10443249;28;20183;-71
2022/06/24 13:40:40;;;;;;;0.00;0.00;;;;;;;;;;10450543;28;20055;-72
2022/06/24 13:45:43;;;;;;;0.00;0.00;;;;;;;;;;10443610;28;20316;-71
2022/06/24 13:50:47;;;;;;;0.00;0.00;;;;;;;;;;10475926;28;20059;-72
2022/06/24 13:55:49;;;;;;;0.00;0.00;;;;;;;;;;10475331;28;20048;-72
2022/06/24 14:00:51;;;;;;;0.00;0.00;;;;;;;;;;10441333;28;20257;-72
2022/06/24 14:05:56;;;;;;;0.00;0.00;;;;;;;;;;10446945;28;20041;-71
2022/06/24 14:10:59;;;;;;;0.00;0.00;;;;;;;;;;10459981;28;20045;-71
2022/06/24 14:16:02;;;;;;;;;;;;;;;;;;10477888;28;20037;-73
2022/06/24 14:21:05;;;;;;;0.00;0.00;;;;;;;;;;10453123;28;19925;-72
2022/06/24 14:26:07;;;;;;;0.00;0.00;;;;;;;;;;10445543;28;20037;-72
2022/06/24 14:31:09;;;;;;;0.00;0.00;;;;;;;;;;10451681;28;20132;-71
2022/06/24 14:36:13;;;;;;;0.00;0.00;;;;;;;;;;10440678;28;20037;-71
2022/06/24 14:41:15;;;;;;;0.00;0.00;;;;;;;;;;10478137;28;20049;-70
2022/06/24 14:46:17;;;;;;;0.00;0.00;;;;;;;;;;10470228;28;20045;-71
2022/06/24 14:51:21;;;;;;;0.00;0.00;;;;;;;;;;10442215;28;20362;-71
2022/06/24 14:56:23;;;;;;;0.00;0.00;;;;;;;;;;10476683;28;20279;-72
2022/06/24 15:01:25;;;;;;;0.00;0.00;;;;;;;;;;10438855;28;20060;-72
2022/06/24 15:06:30;;;;;;;0.00;0.00;;;;;;;;;;10474017;28;20289;-72
2022/06/24 15:11:33;;;;;;;0.03;0.00;;;;;;;;;;10447102;28;20061;-72
2022/06/24 15:16:36;;;;;;;;;;;;;;;;;;10437635;28;20056;-71
2022/06/24 15:21:39;;;;;;;0.00;0.00;;;;;;;;;;10439481;28;19963;-71
2022/06/24 15:26:41;;;;;;;0.00;0.00;;;;;;;;;;10479174;28;20041;-70
2022/06/24 15:31:44;;;;;;;0.00;0.00;;;;;;;;;;10466160;28;20087;-70
2022/06/24 15:36:47;;;;;;;0.00;0.00;;;;;;;;;;10465723;28;20037;-73
2022/06/24 15:41:50;;;;;;;0.00;0.00;;;;;;;;;;10454898;28;20056;-72
2022/06/24 15:46:52;;;;;;;0.00;0.00;;;;;;;;;;10478834;28;20045;-70
2022/06/24 15:51:55;;;;;;;0.00;0.00;;;;;;;;;;10460318;28;20489;-72
2022/06/24 15:56:58;;;;;;;0.00;0.00;;;;;;;;;;10465270;28;20048;-71
2022/06/24 16:02:01;;;;;;;0.00;0.00;;;;;;;;;;10436194;28;20222;-73
2022/06/24 16:07:05;;;;;;;0.00;0.00;;;;;;;;;;10446424;28;20099;-72
2022/06/24 16:17:28;;;;;;;0.00;0.00;;;;;;;;;;10446145;28;20041;-70
2022/06/24 16:22:32;;;;;;;0.00;0.00;;;;;;;;;;10436144;28;20052;-70
2022/06/24 16:32:54;;;;;;;0.00;0.00;;;;;;;;;;10462480;28;20045;-71
2022/06/24 16:37:58;;;;;;;0.00;0.00;;;;;;;;;;10453879;28;20041;-73
2022/06/24 16:43:18;;;;;;;0.00;0.00;;;;;;;;;;10450598;28;20076;-73
2022/06/24 16:48:22;;;;;;;0.00;0.00;;;;;;;;;;10463810;28;20337;-71
2022/06/24 16:53:29;;;;;;;0.00;0.00;;;;;;;;;;10445350;28;20045;-74
2022/06/24 16:58:32;;;;;;;1.38;1.38;;;;;;;;;;10443054;28;20239;-70
2022/06/24 17:03:34;;;;;;;0.00;0.00;;;;;;;;;;10437853;28;20045;-70
2022/06/24 17:08:39;;;;;;;0.00;0.00;;;;;;;;;;10454721;28;20049;-73
2022/06/24 17:13:42;;;;;;;0.00;0.00;;;;;;;;;;10475731;28;20053;-74
2022/06/24 17:18:44;;;;;;;0.00;0.00;;;;;;;;;;10451615;28;20362;-72
2022/06/24 17:23:50;;;;;;;0.20;0.20;;;;;;;;;;10441971;28;20294;-72
2022/06/24 17:28:53;;;;;;;0.00;0.00;;;;;;;;;;10470463;28;20116;-69
2022/06/24 17:33:55;;;;;;;0.00;0.00;;;;;;;;;;10460449;28;20041;-73
2022/06/24 17:39:01;;;;;;;0.00;0.00;;;;;;;;;;10458430;28;20053;-70
2022/06/24 17:44:03;;;;;;;0.10;0.10;;;;;;;;;;10450205;28;20048;-70
2022/06/24 17:49:06;;;;;;;0.00;0.00;;;;;;;;;;10479031;28;20037;-71
2022/06/24 17:54:09;;;;;;;0.00;0.00;;;;;;;;;;10481612;28;20053;-73
2022/06/24 17:59:12;;;;;;;0.00;0.00;;;;;;;;;;10463499;28;20072;-71
2022/06/24 18:04:14;;;;;;;0.20;0.05;;;;;;;;;;10461352;28;20048;-73
2022/06/24 18:09:17;;;;;;;0.05;0.05;;;;;;;;;;10448782;28;20344;-70
2022/06/24 18:14:20;;;;;;;0.10;0.10;;;;;;;;;;10446522;28;20060;-70
2022/06/24 18:19:23;;;;;;;0.38;0.10;;;;;;;;;;10464548;28;20109;-73
2022/06/24 18:24:26;;;;;;;0.33;0.33;;;;;;;;;;10464959;28;20106;-72
2022/06/24 18:29:28;;;;;;;2.50;2.40;;;;;;;;;;10432177;28;20049;-73
2022/06/24 18:34:30;;;;;;;1.73;1.70;;;;;;;;;;10461170;28;20037;-74
2022/06/24 18:39:34;;;;;;;1.40;1.40;;;;;;;;;;10447501;28;20347;-73
2022/06/24 18:44:36;;;;;;;1.02;1.02;;;;;;;;;;10458446;28;20051;-71
2022/06/24 18:49:38;;;;;;;0.60;0.60;;;;;;;;;;10482626;28;20052;-69
2022/06/24 18:54:43;;;;;;;3.80;3.55;;;;;;;;;;10447491;28;20068;-68
2022/06/24 18:59:45;;;;;;;2.80;2.70;;;;;;;;;;10440560;28;20045;-68
2022/06/24 19:04:47;;;;;;;4.15;3.83;;;;;;;;;;10443080;28;20048;-69
2022/06/24 19:09:54;;;;;;;0.30;0.30;;;;;;;;;;10477322;28;20421;-69
2022/06/24 19:14:56;;;;;;;0.25;0.25;;;;;;;;;;10472986;28;20138;-69
2022/06/24 19:20:00;;;;;;;7.70;7.40;;;;;;;;;;10454535;28;20046;-69
2022/06/24 19:25:04;;;;;;;6.15;5.85;;;;;;;;;;10439689;28;20048;-68
2022/06/24 19:30:08;;;;;;;5.47;5.28;;;;;;;;;;10476523;28;20053;-69
2022/06/24 19:35:10;;;;;;;0.47;0.47;;;;;;;;;;10443968;28;20099;-69
2022/06/24 19:40:14;;;;;;;1.27;0.73;;;;;;;;;;10478734;28;20064;-69
2022/06/24 19:45:17;;;;;;;0.45;0.45;;;;;;;;;;10468593;28;20049;-68
2022/06/24 19:50:19;;;;;;;0.65;0.50;;;;;;;;;;10463899;28;20040;-68
2022/06/24 19:55:22;;;;;;;0.68;0.60;;;;;;;;;;10444375;28;20248;-69
2022/06/24 20:00:24;;;;;;;2.17;0.68;;;;;;;;;;10439756;28;20045;-68
2022/06/24 20:10:49;;;;;;;0.90;0.70;;;;;;;;;;10476859;28;20041;-67
2022/06/24 20:15:55;;;;;;;1.05;1.05;;;;;;;;;;10438942;28;20072;-69
2022/06/24 20:20:57;;;;;;;0.50;0.50;;;;;;;;;;10436764;28;20060;-69
2022/06/24 20:26:08;;;;;;;0.50;0.50;;;;;;;;;;10458724;28;20235;-69
2022/06/24 20:31:11;;;;;;;1.85;0.65;;;;;;;;;;10477234;28;20052;-68
2022/06/24 20:36:13;;;;;;;0.63;0.63;;;;;;;;;;10434656;28;20240;-68
2022/06/24 20:41:17;;;;;;;1.77;1.20;;;;;;;;;;10441738;28;20037;-67
2022/06/24 20:46:22;;;;;;;0.70;0.70;;;;;;;;;;10435337;28;20050;-68
2022/06/24 20:51:24;;;;;;;0.98;0.98;;;;;;;;;;10461389;28;20041;-68
2022/06/24 20:56:27;;;;;;;2.03;0.98;;;;;;;;;;10435054;28;20345;-67
2022/06/24 21:01:30;;;;;;;0.98;0.90;;;;;;;;;;10434917;28;20072;-68
2022/06/24 21:06:32;;;;;;;1.00;1.00;;;;;;;;;;10457928;28;20350;-70
2022/06/24 21:11:36;;;;;;;3.00;1.60;;;;;;;;;;10448068;28;20053;-68
2022/06/24 21:16:40;;;;;;;1.67;1.52;;;;;;;;;;10469493;28;20053;-68
2022/06/24 21:21:42;;;;;;;1.90;1.80;;;;;;;;;;10473910;28;20340;-69
2022/06/24 21:26:45;;;;;;;3.55;2.95;;;;;;;;;;10445563;28;20045;-69
2022/06/24 21:31:47;;;;;;;2.22;2.03;;;;;;;;;;10434493;28;20049;-68
2022/06/24 21:36:50;;;;;;;6.18;2.85;;;;;;;;;;10452788;28;20241;-68
2022/06/24 21:41:53;;;;;;;1.65;1.40;;;;;;;;;;10434528;28;20054;-68
2022/06/24 21:46:55;;;;;;;1.50;1.40;;;;;;;;;;10461794;28;20053;-68
2022/06/24 21:51:57;;;;;;;2.85;1.65;;;;;;;;;;10475256;28;20057;-68
2022/06/24 21:57:01;;;;;;;2.97;1.33;;;;;;;;;;10447895;28;20049;-68
2022/06/24 22:02:03;;;;;;;2.00;1.27;;;;;;;;;;10458367;28;20050;-69
2022/06/24 22:07:06;;;;;;;1.52;1.20;;;;;;;;;;10449448;28;20049;-69
2022/06/24 22:12:10;;;;;;;1.77;1.27;;;;;;;;;;10461783;28;20049;-69
2022/06/24 22:17:12;;;;;;;1.02;0.90;;;;;;;;;;10471833;28;20068;-69
2022/06/24 22:22:15;;;;;;;0.90;0.90;;;;;;;;;;10482211;28;20240;-68
2022/06/24 22:27:18;;;;;;;3.00;1.42;;;;;;;;;;10482222;28;20063;-69
2022/06/24 22:32:20;;;;;;;0.90;0.90;;;;;;;;;;10452811;28;20043;-67
2022/06/24 22:37:23;;;;;;;1.43;1.23;;;;;;;;;;10440691;28;20355;-68
2022/06/24 22:42:27;;;;;;;1.42;1.08;;;;;;;;;;10440071;28;20041;-68
2022/06/24 22:47:29;;;;;;;1.52;1.15;;;;;;;;;;10467625;28;20041;-68
2022/06/24 22:52:31;;;;;;;1.30;1.20;;;;;;;;;;10455162;28;20045;-68
2022/06/24 22:57:35;;;;;;;3.05;1.30;;;;;;;;;;10465947;28;20236;-67
2022/06/24 23:02:37;;;;;;;2.58;1.73;;;;;;;;;;10480443;28;20041;-67
2022/06/24 23:07:39;;;;;;;1.88;1.15;;;;;;;;;;10480535;28;20048;-66
2022/06/24 23:12:43;;;;;;;3.25;1.52;;;;;;;;;;10480495;28;20348;-68
2022/06/24 23:17:46;;;;;;;2.10;1.40;;;;;;;;;;10480513;28;20063;-68
2022/06/24 23:22:48;;;;;;;1.33;1.23;;;;;;;;;;10479551;28;20049;-68
2022/06/24 23:27:51;;;;;;;1.20;1.10;;;;;;;;;;10480007;28;20224;-67
2022/06/24 23:32:53;;;;;;;1.33;1.23;;;;;;;;;;10478240;28;20048;-68
2022/06/24 23:37:56;;;;;;;1.42;1.33;;;;;;;;;;10470625;28;20305;-67
2022/06/24 23:42:59;;;;;;;3.03;1.80;;;;;;;;;;10444947;28;20045;-67
2022/06/24 23:53:22;;;;;;;3.25;1.92;;;;;;;;;;10437116;28;20048;-68
2022/06/24 23:58:25;;;;;;;3.28;1.83;;;;;;;;;;10436724;28;20041;-67
